sensor_id;sensor_type;location;lat;lon;timestamp;P1;durP1;ratioP1;P2;durP2;ratioP2
6251;SDS011;3159;52.414;9.784;2023-12-07T00:00:25;16.47;;;13.03;;
6251;SDS011;3159;52.414;9.784;2023-12-07T00:02:53;17.23;;;13.37;;
6251;SDS011;3159;52.414;9.784;2023-12-07T00:05:20;15.93;;;11.93;;
6251;SDS011;3159;52.414;9.784;2023-12-07T00:07:46;14.17;;;12.13;;
6251;SDS011;3159;52.414;9.784;2023-12-07T00:10:13;16.13;;;12.07;;
6251;SDS011;3159;52.414;9.784;2023-12-07T00:12:40;17.17;;;13.03;;
6251;SDS011;3159;52.414;9.784;2023-12-07T00:15:07;14.67;;;11.63;;
6251;SDS011;3159;52.414;9.784;2023-12-07T00:17:34;16.07;;;12.07;;
6251;SDS011;3159;52.414;9.784;2023-12-07T00:20:03;14.77;;;12.57;;
6251;SDS011;3159;52.414;9.784;2023-12-07T00:22:30;16.33;;;12.53;;
6251;SDS011;3159;52.414;9.784;2023-12-07T00:24:57;18.33;;;12.50;;
6251;SDS011;3159;52.414;9.784;2023-12-07T00:27:24;15.77;;;12.37;;
6251;SDS011;3159;52.414;9.784;2023-12-07T00:29:50;18.57;;;13.47;;
6251;SDS011;3159;52.414;9.784;2023-12-07T00:32:17;17.57;;;13.47;;
6251;SDS011;3159;52.414;9.784;2023-12-07T00:34:44;15.77;;;12.70;;
6251;SDS011;3159;52.414;9.784;2023-12-07T00:37:12;17.30;;;12.83;;
6251;SDS011;3159;52.414;9.784;2023-12-07T00:39:40;16.53;;;13.17;;
6251;SDS011;3159;52.414;9.784;2023-12-07T00:42:07;15.77;;;12.63;;
6251;SDS011;3159;52.414;9.784;2023-12-07T00:44:34;15.03;;;12.07;;
6251;SDS011;3159;52.414;9.784;2023-12-07T00:47:05;16.00;;;12.73;;
6251;SDS011;3159;52.414;9.784;2023-12-07T00:49:32;15.97;;;12.17;;
6251;SDS011;3159;52.414;9.784;2023-12-07T00:51:59;15.60;;;12.13;;
6251;SDS011;3159;52.414;9.784;2023-12-07T00:54:27;15.53;;;12.57;;
6251;SDS011;3159;52.414;9.784;2023-12-07T00:56:54;15.17;;;12.67;;
6251;SDS011;3159;52.414;9.784;2023-12-07T00:59:20;14.60;;;12.07;;
6251;SDS011;3159;52.414;9.784;2023-12-07T01:01:47;14.57;;;12.10;;
6251;SDS011;3159;52.414;9.784;2023-12-07T01:04:14;14.40;;;11.30;;
6251;SDS011;3159;52.414;9.784;2023-12-07T01:06:41;14.53;;;11.77;;
6251;SDS011;3159;52.414;9.784;2023-12-07T01:09:08;13.90;;;12.27;;
6251;SDS011;3159;52.414;9.784;2023-12-07T01:11:39;15.03;;;11.97;;
6251;SDS011;3159;52.414;9.784;2023-12-07T01:14:06;16.27;;;12.30;;
6251;SDS011;3159;52.414;9.784;2023-12-07T01:16:33;15.60;;;11.60;;
6251;SDS011;3159;52.414;9.784;2023-12-07T01:18:59;15.53;;;11.27;;
6251;SDS011;3159;52.414;9.784;2023-12-07T01:21:26;16.53;;;12.70;;
6251;SDS011;3159;52.414;9.784;2023-12-07T01:23:53;16.30;;;12.50;;
6251;SDS011;3159;52.414;9.784;2023-12-07T01:26:20;15.87;;;12.60;;
6251;SDS011;3159;52.414;9.784;2023-12-07T01:28:48;14.13;;;11.97;;
6251;SDS011;3159;52.414;9.784;2023-12-07T01:31:15;15.87;;;11.67;;
6251;SDS011;3159;52.414;9.784;2023-12-07T01:33:42;16.50;;;12.33;;
6251;SDS011;3159;52.414;9.784;2023-12-07T01:36:09;17.87;;;12.90;;
6251;SDS011;3159;52.414;9.784;2023-12-07T01:38:36;20.23;;;14.00;;
6251;SDS011;3159;52.414;9.784;2023-12-07T01:41:03;16.87;;;13.30;;
6251;SDS011;3159;52.414;9.784;2023-12-07T01:43:30;14.37;;;12.00;;
6251;SDS011;3159;52.414;9.784;2023-12-07T01:45:58;15.43;;;12.63;;
6251;SDS011;3159;52.414;9.784;2023-12-07T01:48:26;16.23;;;12.67;;
6251;SDS011;3159;52.414;9.784;2023-12-07T01:50:55;18.07;;;13.37;;
6251;SDS011;3159;52.414;9.784;2023-12-07T01:53:23;15.97;;;12.43;;
6251;SDS011;3159;52.414;9.784;2023-12-07T01:55:50;14.93;;;12.37;;
6251;SDS011;3159;52.414;9.784;2023-12-07T01:58:19;15.43;;;11.97;;
6251;SDS011;3159;52.414;9.784;2023-12-07T02:00:47;14.03;;;11.73;;
6251;SDS011;3159;52.414;9.784;2023-12-07T02:03:15;15.73;;;12.33;;
6251;SDS011;3159;52.414;9.784;2023-12-07T02:05:43;15.70;;;12.47;;
6251;SDS011;3159;52.414;9.784;2023-12-07T02:08:13;17.63;;;12.93;;
6251;SDS011;3159;52.414;9.784;2023-12-07T02:10:40;16.60;;;12.87;;
6251;SDS011;3159;52.414;9.784;2023-12-07T02:13:07;16.43;;;12.50;;
6251;SDS011;3159;52.414;9.784;2023-12-07T02:15:35;15.80;;;13.23;;
6251;SDS011;3159;52.414;9.784;2023-12-07T02:18:02;16.33;;;13.07;;
6251;SDS011;3159;52.414;9.784;2023-12-07T02:20:36;17.03;;;13.40;;
6251;SDS011;3159;52.414;9.784;2023-12-07T02:23:07;16.23;;;13.73;;
6251;SDS011;3159;52.414;9.784;2023-12-07T02:25:36;18.37;;;12.63;;
6251;SDS011;3159;52.414;9.784;2023-12-07T02:28:08;18.27;;;12.80;;
6251;SDS011;3159;52.414;9.784;2023-12-07T02:30:34;15.47;;;12.60;;
6251;SDS011;3159;52.414;9.784;2023-12-07T02:33:01;17.67;;;13.13;;
6251;SDS011;3159;52.414;9.784;2023-12-07T02:35:30;18.77;;;12.90;;
6251;SDS011;3159;52.414;9.784;2023-12-07T02:37:57;16.80;;;13.20;;
6251;SDS011;3159;52.414;9.784;2023-12-07T02:40:26;16.87;;;12.93;;
6251;SDS011;3159;52.414;9.784;2023-12-07T02:42:55;18.20;;;13.73;;
6251;SDS011;3159;52.414;9.784;2023-12-07T02:45:23;18.33;;;13.00;;
6251;SDS011;3159;52.414;9.784;2023-12-07T02:47:51;17.50;;;13.17;;
6251;SDS011;3159;52.414;9.784;2023-12-07T02:50:18;18.20;;;13.50;;
6251;SDS011;3159;52.414;9.784;2023-12-07T02:52:45;16.17;;;12.80;;
6251;SDS011;3159;52.414;9.784;2023-12-07T02:55:12;16.67;;;13.40;;
6251;SDS011;3159;52.414;9.784;2023-12-07T02:57:39;16.50;;;12.53;;
6251;SDS011;3159;52.414;9.784;2023-12-07T03:00:06;15.60;;;11.70;;
6251;SDS011;3159;52.414;9.784;2023-12-07T03:02:35;16.07;;;11.97;;
6251;SDS011;3159;52.414;9.784;2023-12-07T03:05:02;16.90;;;12.20;;
6251;SDS011;3159;52.414;9.784;2023-12-07T03:07:30;16.53;;;12.10;;
6251;SDS011;3159;52.414;9.784;2023-12-07T03:09:57;18.30;;;12.03;;
6251;SDS011;3159;52.414;9.784;2023-12-07T03:12:23;14.37;;;11.77;;
6251;SDS011;3159;52.414;9.784;2023-12-07T03:14:50;15.40;;;11.93;;
6251;SDS011;3159;52.414;9.784;2023-12-07T03:17:17;15.00;;;11.37;;
6251;SDS011;3159;52.414;9.784;2023-12-07T03:19:45;14.37;;;11.77;;
6251;SDS011;3159;52.414;9.784;2023-12-07T03:22:12;15.23;;;11.20;;
6251;SDS011;3159;52.414;9.784;2023-12-07T03:24:39;17.53;;;12.77;;
6251;SDS011;3159;52.414;9.784;2023-12-07T03:27:12;16.70;;;12.60;;
6251;SDS011;3159;52.414;9.784;2023-12-07T03:29:39;16.43;;;12.13;;
6251;SDS011;3159;52.414;9.784;2023-12-07T03:32:06;15.23;;;12.07;;
6251;SDS011;3159;52.414;9.784;2023-12-07T03:34:33;15.10;;;12.27;;
6251;SDS011;3159;52.414;9.784;2023-12-07T03:37:01;16.93;;;12.03;;
6251;SDS011;3159;52.414;9.784;2023-12-07T03:39:28;16.33;;;13.07;;
6251;SDS011;3159;52.414;9.784;2023-12-07T03:41:57;15.27;;;12.60;;
6251;SDS011;3159;52.414;9.784;2023-12-07T03:44:24;17.50;;;13.00;;
6251;SDS011;3159;52.414;9.784;2023-12-07T03:46:51;15.77;;;12.17;;
6251;SDS011;3159;52.414;9.784;2023-12-07T03:49:18;15.80;;;12.50;;
6251;SDS011;3159;52.414;9.784;2023-12-07T03:51:45;16.03;;;13.17;;
6251;SDS011;3159;52.414;9.784;2023-12-07T03:54:13;14.87;;;12.37;;
6251;SDS011;3159;52.414;9.784;2023-12-07T03:56:40;17.23;;;12.77;;
6251;SDS011;3159;52.414;9.784;2023-12-07T03:59:07;17.13;;;13.17;;
6251;SDS011;3159;52.414;9.784;2023-12-07T04:01:34;15.13;;;12.67;;
6251;SDS011;3159;52.414;9.784;2023-12-07T04:04:00;19.93;;;12.53;;
6251;SDS011;3159;52.414;9.784;2023-12-07T04:06:27;16.30;;;12.60;;
6251;SDS011;3159;52.414;9.784;2023-12-07T04:08:54;15.60;;;12.03;;
6251;SDS011;3159;52.414;9.784;2023-12-07T04:11:22;15.93;;;12.87;;
6251;SDS011;3159;52.414;9.784;2023-12-07T04:13:50;15.90;;;11.50;;
6251;SDS011;3159;52.414;9.784;2023-12-07T04:16:17;16.30;;;11.90;;
6251;SDS011;3159;52.414;9.784;2023-12-07T04:18:44;13.67;;;11.50;;
6251;SDS011;3159;52.414;9.784;2023-12-07T04:21:10;15.23;;;11.00;;
6251;SDS011;3159;52.414;9.784;2023-12-07T04:23:37;15.70;;;12.23;;
6251;SDS011;3159;52.414;9.784;2023-12-07T04:26:04;15.07;;;11.90;;
6251;SDS011;3159;52.414;9.784;2023-12-07T04:28:32;14.67;;;12.17;;
6251;SDS011;3159;52.414;9.784;2023-12-07T04:30:59;13.87;;;11.07;;
6251;SDS011;3159;52.414;9.784;2023-12-07T04:33:26;14.10;;;11.07;;
6251;SDS011;3159;52.414;9.784;2023-12-07T04:35:52;14.53;;;11.03;;
6251;SDS011;3159;52.414;9.784;2023-12-07T04:38:20;14.20;;;11.70;;
6251;SDS011;3159;52.414;9.784;2023-12-07T04:40:47;15.57;;;11.87;;
6251;SDS011;3159;52.414;9.784;2023-12-07T04:43:14;15.57;;;12.43;;
6251;SDS011;3159;52.414;9.784;2023-12-07T04:45:42;14.20;;;11.33;;
6251;SDS011;3159;52.414;9.784;2023-12-07T04:48:09;14.47;;;11.30;;
6251;SDS011;3159;52.414;9.784;2023-12-07T04:50:36;15.40;;;12.13;;
6251;SDS011;3159;52.414;9.784;2023-12-07T04:53:02;13.33;;;11.03;;
6251;SDS011;3159;52.414;9.784;2023-12-07T04:55:29;14.30;;;10.90;;
6251;SDS011;3159;52.414;9.784;2023-12-07T04:57:56;12.60;;;10.53;;
6251;SDS011;3159;52.414;9.784;2023-12-07T05:00:23;14.47;;;11.10;;
6251;SDS011;3159;52.414;9.784;2023-12-07T05:02:51;13.33;;;10.77;;
6251;SDS011;3159;52.414;9.784;2023-12-07T05:05:18;13.90;;;10.67;;
6251;SDS011;3159;52.414;9.784;2023-12-07T05:07:45;14.33;;;11.17;;
6251;SDS011;3159;52.414;9.784;2023-12-07T05:10:11;13.43;;;10.67;;
6251;SDS011;3159;52.414;9.784;2023-12-07T05:12:38;14.73;;;11.10;;
6251;SDS011;3159;52.414;9.784;2023-12-07T05:15:06;12.43;;;10.23;;
6251;SDS011;3159;52.414;9.784;2023-12-07T05:17:33;12.97;;;10.57;;
6251;SDS011;3159;52.414;9.784;2023-12-07T05:20:01;15.70;;;11.33;;
6251;SDS011;3159;52.414;9.784;2023-12-07T05:22:30;13.10;;;11.10;;
6251;SDS011;3159;52.414;9.784;2023-12-07T05:24:57;15.77;;;11.37;;
6251;SDS011;3159;52.414;9.784;2023-12-07T05:27:23;17.07;;;11.43;;
6251;SDS011;3159;52.414;9.784;2023-12-07T05:29:50;16.90;;;11.60;;
6251;SDS011;3159;52.414;9.784;2023-12-07T05:32:17;17.27;;;12.23;;
6251;SDS011;3159;52.414;9.784;2023-12-07T05:34:44;15.13;;;11.47;;
6251;SDS011;3159;52.414;9.784;2023-12-07T05:37:12;14.47;;;11.13;;
6251;SDS011;3159;52.414;9.784;2023-12-07T05:39:38;15.23;;;10.77;;
6251;SDS011;3159;52.414;9.784;2023-12-07T05:42:05;17.07;;;11.07;;
6251;SDS011;3159;52.414;9.784;2023-12-07T05:44:32;16.47;;;11.33;;
6251;SDS011;3159;52.414;9.784;2023-12-07T05:46:59;15.50;;;11.57;;
6251;SDS011;3159;52.414;9.784;2023-12-07T05:49:26;15.60;;;12.00;;
6251;SDS011;3159;52.414;9.784;2023-12-07T05:51:53;16.00;;;11.67;;
6251;SDS011;3159;52.414;9.784;2023-12-07T05:54:21;17.00;;;12.60;;
6251;SDS011;3159;52.414;9.784;2023-12-07T05:56:48;17.60;;;12.40;;
6251;SDS011;3159;52.414;9.784;2023-12-07T05:59:15;22.20;;;14.70;;
6251;SDS011;3159;52.414;9.784;2023-12-07T06:01:41;19.80;;;13.97;;
6251;SDS011;3159;52.414;9.784;2023-12-07T06:04:09;18.07;;;13.63;;
6251;SDS011;3159;52.414;9.784;2023-12-07T06:06:37;15.80;;;11.90;;
6251;SDS011;3159;52.414;9.784;2023-12-07T06:09:04;16.63;;;12.90;;
6251;SDS011;3159;52.414;9.784;2023-12-07T06:11:32;18.07;;;12.07;;
6251;SDS011;3159;52.414;9.784;2023-12-07T06:13:59;16.33;;;12.33;;
6251;SDS011;3159;52.414;9.784;2023-12-07T06:16:26;16.37;;;11.60;;
6251;SDS011;3159;52.414;9.784;2023-12-07T06:18:53;16.53;;;12.57;;
6251;SDS011;3159;52.414;9.784;2023-12-07T06:21:20;16.00;;;11.90;;
6251;SDS011;3159;52.414;9.784;2023-12-07T06:23:47;17.70;;;12.83;;
6251;SDS011;3159;52.414;9.784;2023-12-07T06:26:13;17.10;;;11.30;;
6251;SDS011;3159;52.414;9.784;2023-12-07T06:28:42;15.80;;;12.03;;
6251;SDS011;3159;52.414;9.784;2023-12-07T06:31:09;14.17;;;11.60;;
6251;SDS011;3159;52.414;9.784;2023-12-07T06:33:36;15.30;;;11.20;;
6251;SDS011;3159;52.414;9.784;2023-12-07T06:36:03;16.77;;;12.40;;
6251;SDS011;3159;52.414;9.784;2023-12-07T06:38:30;13.77;;;11.40;;
6251;SDS011;3159;52.414;9.784;2023-12-07T06:40:57;14.20;;;10.77;;
6251;SDS011;3159;52.414;9.784;2023-12-07T06:43:24;14.10;;;10.87;;
6251;SDS011;3159;52.414;9.784;2023-12-07T06:45:52;14.50;;;11.20;;
6251;SDS011;3159;52.414;9.784;2023-12-07T06:48:19;13.87;;;11.30;;
6251;SDS011;3159;52.414;9.784;2023-12-07T06:50:46;14.63;;;11.50;;
6251;SDS011;3159;52.414;9.784;2023-12-07T06:53:13;13.77;;;10.80;;
6251;SDS011;3159;52.414;9.784;2023-12-07T06:55:41;14.63;;;11.30;;
6251;SDS011;3159;52.414;9.784;2023-12-07T06:58:08;16.23;;;12.30;;
6251;SDS011;3159;52.414;9.784;2023-12-07T07:00:35;15.27;;;11.53;;
6251;SDS011;3159;52.414;9.784;2023-12-07T07:03:03;17.90;;;12.37;;
6251;SDS011;3159;52.414;9.784;2023-12-07T07:05:31;15.73;;;11.37;;
6251;SDS011;3159;52.414;9.784;2023-12-07T07:07:58;14.80;;;11.10;;
6251;SDS011;3159;52.414;9.784;2023-12-07T07:10:24;16.77;;;12.00;;
6251;SDS011;3159;52.414;9.784;2023-12-07T07:12:51;14.27;;;10.90;;
6251;SDS011;3159;52.414;9.784;2023-12-07T07:15:18;16.17;;;11.10;;
6251;SDS011;3159;52.414;9.784;2023-12-07T07:17:45;13.33;;;11.07;;
6251;SDS011;3159;52.414;9.784;2023-12-07T07:20:13;14.70;;;11.47;;
6251;SDS011;3159;52.414;9.784;2023-12-07T07:22:40;15.33;;;11.30;;
6251;SDS011;3159;52.414;9.784;2023-12-07T07:25:07;16.17;;;11.57;;
6251;SDS011;3159;52.414;9.784;2023-12-07T07:27:34;17.37;;;11.07;;
6251;SDS011;3159;52.414;9.784;2023-12-07T07:30:01;14.73;;;10.47;;
6251;SDS011;3159;52.414;9.784;2023-12-07T07:32:29;13.20;;;10.80;;
6251;SDS011;3159;52.414;9.784;2023-12-07T07:34:56;14.73;;;10.73;;
6251;SDS011;3159;52.414;9.784;2023-12-07T07:37:25;15.17;;;11.13;;
6251;SDS011;3159;52.414;9.784;2023-12-07T07:39:52;13.53;;;10.07;;
6251;SDS011;3159;52.414;9.784;2023-12-07T07:42:19;14.00;;;10.20;;
6251;SDS011;3159;52.414;9.784;2023-12-07T07:44:46;15.20;;;10.90;;
6251;SDS011;3159;52.414;9.784;2023-12-07T07:47:12;13.47;;;10.13;;
6251;SDS011;3159;52.414;9.784;2023-12-07T07:49:39;15.00;;;10.37;;
6251;SDS011;3159;52.414;9.784;2023-12-07T07:52:06;13.27;;;10.23;;
6251;SDS011;3159;52.414;9.784;2023-12-07T07:54:34;13.67;;;10.50;;
6251;SDS011;3159;52.414;9.784;2023-12-07T07:57:02;14.60;;;11.00;;
6251;SDS011;3159;52.414;9.784;2023-12-07T07:59:29;14.97;;;11.00;;
6251;SDS011;3159;52.414;9.784;2023-12-07T08:01:56;12.67;;;9.80;;
6251;SDS011;3159;52.414;9.784;2023-12-07T08:04:23;12.90;;;9.43;;
6251;SDS011;3159;52.414;9.784;2023-12-07T08:06:50;13.73;;;10.23;;
6251;SDS011;3159;52.414;9.784;2023-12-07T08:09:17;13.87;;;9.23;;
6251;SDS011;3159;52.414;9.784;2023-12-07T08:11:45;15.30;;;11.97;;
6251;SDS011;3159;52.414;9.784;2023-12-07T08:14:12;14.30;;;10.03;;
6251;SDS011;3159;52.414;9.784;2023-12-07T08:16:42;13.47;;;9.80;;
6251;SDS011;3159;52.414;9.784;2023-12-07T08:19:11;13.97;;;9.47;;
6251;SDS011;3159;52.414;9.784;2023-12-07T08:21:38;13.53;;;10.27;;
6251;SDS011;3159;52.414;9.784;2023-12-07T08:24:05;14.53;;;10.37;;
6251;SDS011;3159;52.414;9.784;2023-12-07T08:26:33;12.43;;;9.70;;
6251;SDS011;3159;52.414;9.784;2023-12-07T08:29:01;12.60;;;9.37;;
6251;SDS011;3159;52.414;9.784;2023-12-07T08:31:28;15.47;;;10.27;;
6251;SDS011;3159;52.414;9.784;2023-12-07T08:33:55;14.93;;;10.30;;
6251;SDS011;3159;52.414;9.784;2023-12-07T08:36:21;12.93;;;9.23;;
6251;SDS011;3159;52.414;9.784;2023-12-07T08:38:48;15.07;;;10.27;;
6251;SDS011;3159;52.414;9.784;2023-12-07T08:41:15;12.80;;;9.37;;
6251;SDS011;3159;52.414;9.784;2023-12-07T08:43:42;14.83;;;9.67;;
6251;SDS011;3159;52.414;9.784;2023-12-07T08:46:10;13.60;;;9.97;;
6251;SDS011;3159;52.414;9.784;2023-12-07T08:48:37;14.90;;;10.17;;
6251;SDS011;3159;52.414;9.784;2023-12-07T08:51:03;15.70;;;9.43;;
6251;SDS011;3159;52.414;9.784;2023-12-07T08:53:31;14.13;;;9.70;;
6251;SDS011;3159;52.414;9.784;2023-12-07T08:55:57;12.43;;;9.80;;
6251;SDS011;3159;52.414;9.784;2023-12-07T08:58:24;11.83;;;9.53;;
6251;SDS011;3159;52.414;9.784;2023-12-07T09:00:51;13.50;;;9.13;;
6251;SDS011;3159;52.414;9.784;2023-12-07T09:03:19;13.67;;;9.97;;
6251;SDS011;3159;52.414;9.784;2023-12-07T09:05:46;15.53;;;10.13;;
6251;SDS011;3159;52.414;9.784;2023-12-07T09:08:13;14.53;;;9.87;;
6251;SDS011;3159;52.414;9.784;2023-12-07T09:10:39;13.77;;;9.73;;
6251;SDS011;3159;52.414;9.784;2023-12-07T09:13:06;12.63;;;9.97;;
6251;SDS011;3159;52.414;9.784;2023-12-07T09:15:33;12.67;;;10.07;;
6251;SDS011;3159;52.414;9.784;2023-12-07T09:18:02;11.70;;;9.20;;
6251;SDS011;3159;52.414;9.784;2023-12-07T09:20:30;11.50;;;8.93;;
6251;SDS011;3159;52.414;9.784;2023-12-07T09:22:57;12.70;;;8.93;;
6251;SDS011;3159;52.414;9.784;2023-12-07T09:25:24;13.53;;;9.20;;
6251;SDS011;3159;52.414;9.784;2023-12-07T09:27:52;14.70;;;9.37;;
6251;SDS011;3159;52.414;9.784;2023-12-07T09:30:19;13.53;;;10.13;;
6251;SDS011;3159;52.414;9.784;2023-12-07T09:32:46;14.40;;;10.27;;
6251;SDS011;3159;52.414;9.784;2023-12-07T09:35:13;14.10;;;9.40;;
6251;SDS011;3159;52.414;9.784;2023-12-07T09:37:45;12.90;;;9.77;;
6251;SDS011;3159;52.414;9.784;2023-12-07T09:40:16;12.63;;;9.13;;
6251;SDS011;3159;52.414;9.784;2023-12-07T09:42:45;13.33;;;9.10;;
6251;SDS011;3159;52.414;9.784;2023-12-07T09:45:12;11.93;;;9.17;;
6251;SDS011;3159;52.414;9.784;2023-12-07T09:47:41;12.47;;;8.83;;
6251;SDS011;3159;52.414;9.784;2023-12-07T09:50:09;14.07;;;9.43;;
6251;SDS011;3159;52.414;9.784;2023-12-07T09:52:37;12.77;;;9.63;;
6251;SDS011;3159;52.414;9.784;2023-12-07T09:55:07;12.93;;;9.63;;
6251;SDS011;3159;52.414;9.784;2023-12-07T09:57:34;10.70;;;8.37;;
6251;SDS011;3159;52.414;9.784;2023-12-07T10:00:03;13.37;;;9.60;;
6251;SDS011;3159;52.414;9.784;2023-12-07T10:02:32;13.57;;;9.67;;
6251;SDS011;3159;52.414;9.784;2023-12-07T10:05:05;13.53;;;9.67;;
6251;SDS011;3159;52.414;9.784;2023-12-07T10:07:33;11.37;;;9.50;;
6251;SDS011;3159;52.414;9.784;2023-12-07T10:10:01;12.77;;;9.73;;
6251;SDS011;3159;52.414;9.784;2023-12-07T10:12:30;13.33;;;9.97;;
6251;SDS011;3159;52.414;9.784;2023-12-07T10:14:58;13.47;;;10.07;;
6251;SDS011;3159;52.414;9.784;2023-12-07T10:17:28;18.43;;;10.80;;
6251;SDS011;3159;52.414;9.784;2023-12-07T10:20:11;16.93;;;13.17;;
6251;SDS011;3159;52.414;9.784;2023-12-07T10:22:39;14.37;;;10.93;;
6251;SDS011;3159;52.414;9.784;2023-12-07T10:25:07;16.77;;;12.20;;
6251;SDS011;3159;52.414;9.784;2023-12-07T10:27:37;16.03;;;11.33;;
6251;SDS011;3159;52.414;9.784;2023-12-07T10:30:06;15.77;;;11.57;;
6251;SDS011;3159;52.414;9.784;2023-12-07T10:32:35;16.30;;;11.33;;
6251;SDS011;3159;52.414;9.784;2023-12-07T10:35:04;18.07;;;12.50;;
6251;SDS011;3159;52.414;9.784;2023-12-07T10:37:32;14.37;;;11.83;;
6251;SDS011;3159;52.414;9.784;2023-12-07T10:39:59;14.57;;;12.00;;
6251;SDS011;3159;52.414;9.784;2023-12-07T10:42:26;16.90;;;12.37;;
6251;SDS011;3159;52.414;9.784;2023-12-07T10:44:58;17.47;;;12.23;;
6251;SDS011;3159;52.414;9.784;2023-12-07T10:47:30;15.83;;;12.43;;
6251;SDS011;3159;52.414;9.784;2023-12-07T10:50:01;17.73;;;12.90;;
6251;SDS011;3159;52.414;9.784;2023-12-07T10:52:31;16.03;;;11.37;;
6251;SDS011;3159;52.414;9.784;2023-12-07T10:55:03;15.83;;;12.10;;
6251;SDS011;3159;52.414;9.784;2023-12-07T10:57:33;16.97;;;12.67;;
6251;SDS011;3159;52.414;9.784;2023-12-07T11:00:04;16.43;;;12.30;;
6251;SDS011;3159;52.414;9.784;2023-12-07T11:02:32;18.60;;;12.63;;
6251;SDS011;3159;52.414;9.784;2023-12-07T11:05:01;17.60;;;12.50;;
6251;SDS011;3159;52.414;9.784;2023-12-07T11:07:31;14.03;;;11.43;;
6251;SDS011;3159;52.414;9.784;2023-12-07T11:10:07;18.00;;;12.10;;
6251;SDS011;3159;52.414;9.784;2023-12-07T11:12:40;15.70;;;11.77;;
6251;SDS011;3159;52.414;9.784;2023-12-07T11:15:14;17.23;;;11.97;;
6251;SDS011;3159;52.414;9.784;2023-12-07T11:17:52;16.37;;;12.07;;
6251;SDS011;3159;52.414;9.784;2023-12-07T11:20:22;17.77;;;12.43;;
6251;SDS011;3159;52.414;9.784;2023-12-07T11:23:05;16.47;;;11.77;;
6251;SDS011;3159;52.414;9.784;2023-12-07T11:25:32;18.60;;;12.67;;
6251;SDS011;3159;52.414;9.784;2023-12-07T11:28:00;13.80;;;10.70;;
6251;SDS011;3159;52.414;9.784;2023-12-07T11:30:28;16.27;;;10.60;;
6251;SDS011;3159;52.414;9.784;2023-12-07T11:32:57;14.37;;;10.63;;
6251;SDS011;3159;52.414;9.784;2023-12-07T11:35:24;14.30;;;11.17;;
6251;SDS011;3159;52.414;9.784;2023-12-07T11:38:00;17.80;;;11.10;;
6251;SDS011;3159;52.414;9.784;2023-12-07T11:40:33;14.90;;;10.57;;
6251;SDS011;3159;52.414;9.784;2023-12-07T11:43:01;16.13;;;11.20;;
6251;SDS011;3159;52.414;9.784;2023-12-07T11:45:41;12.80;;;10.03;;
6251;SDS011;3159;52.414;9.784;2023-12-07T11:48:13;14.00;;;9.90;;
6251;SDS011;3159;52.414;9.784;2023-12-07T11:50:55;12.43;;;9.40;;
6251;SDS011;3159;52.414;9.784;2023-12-07T11:53:23;14.47;;;10.27;;
6251;SDS011;3159;52.414;9.784;2023-12-07T11:55:51;13.47;;;10.33;;
6251;SDS011;3159;52.414;9.784;2023-12-07T11:58:18;14.33;;;10.00;;
6251;SDS011;3159;52.414;9.784;2023-12-07T12:00:47;15.87;;;10.07;;
6251;SDS011;3159;52.414;9.784;2023-12-07T12:03:14;14.37;;;10.73;;
6251;SDS011;3159;52.414;9.784;2023-12-07T12:05:41;16.93;;;11.67;;
6251;SDS011;3159;52.414;9.784;2023-12-07T12:08:09;18.13;;;12.17;;
6251;SDS011;3159;52.414;9.784;2023-12-07T12:10:36;15.83;;;11.60;;
6251;SDS011;3159;52.414;9.784;2023-12-07T12:13:03;16.27;;;11.57;;
6251;SDS011;3159;52.414;9.784;2023-12-07T12:15:30;15.37;;;11.90;;
6251;SDS011;3159;52.414;9.784;2023-12-07T12:17:59;18.33;;;12.40;;
6251;SDS011;3159;52.414;9.784;2023-12-07T12:20:26;16.90;;;12.20;;
6251;SDS011;3159;52.414;9.784;2023-12-07T12:22:54;19.07;;;13.03;;
6251;SDS011;3159;52.414;9.784;2023-12-07T12:25:21;18.80;;;12.77;;
6251;SDS011;3159;52.414;9.784;2023-12-07T12:27:50;20.47;;;13.23;;
6251;SDS011;3159;52.414;9.784;2023-12-07T12:30:19;20.00;;;13.00;;
6251;SDS011;3159;52.414;9.784;2023-12-07T12:32:47;17.57;;;12.70;;
6251;SDS011;3159;52.414;9.784;2023-12-07T12:35:16;18.73;;;12.23;;
6251;SDS011;3159;52.414;9.784;2023-12-07T12:37:44;19.67;;;12.73;;
6251;SDS011;3159;52.414;9.784;2023-12-07T12:40:14;16.00;;;11.73;;
6251;SDS011;3159;52.414;9.784;2023-12-07T12:42:43;16.60;;;11.57;;
6251;SDS011;3159;52.414;9.784;2023-12-07T12:45:11;16.60;;;11.83;;
6251;SDS011;3159;52.414;9.784;2023-12-07T12:47:39;17.77;;;12.63;;
6251;SDS011;3159;52.414;9.784;2023-12-07T12:50:06;16.70;;;11.67;;
6251;SDS011;3159;52.414;9.784;2023-12-07T12:52:35;16.07;;;11.27;;
6251;SDS011;3159;52.414;9.784;2023-12-07T12:55:06;18.50;;;12.20;;
6251;SDS011;3159;52.414;9.784;2023-12-07T12:57:35;20.87;;;13.63;;
6251;SDS011;3159;52.414;9.784;2023-12-07T13:00:03;18.47;;;12.80;;
6251;SDS011;3159;52.414;9.784;2023-12-07T13:02:33;21.53;;;13.43;;
6251;SDS011;3159;52.414;9.784;2023-12-07T13:05:00;19.07;;;13.57;;
6251;SDS011;3159;52.414;9.784;2023-12-07T13:07:27;17.23;;;12.67;;
6251;SDS011;3159;52.414;9.784;2023-12-07T13:09:55;19.93;;;14.10;;
6251;SDS011;3159;52.414;9.784;2023-12-07T13:12:22;20.23;;;12.63;;
6251;SDS011;3159;52.414;9.784;2023-12-07T13:14:52;20.60;;;13.43;;
6251;SDS011;3159;52.414;9.784;2023-12-07T13:17:19;20.20;;;13.10;;
6251;SDS011;3159;52.414;9.784;2023-12-07T13:19:46;18.57;;;13.03;;
6251;SDS011;3159;52.414;9.784;2023-12-07T13:22:13;20.77;;;13.10;;
6251;SDS011;3159;52.414;9.784;2023-12-07T13:24:40;21.40;;;12.77;;
6251;SDS011;3159;52.414;9.784;2023-12-07T13:27:08;20.73;;;13.57;;
6251;SDS011;3159;52.414;9.784;2023-12-07T13:29:35;22.37;;;13.67;;
6251;SDS011;3159;52.414;9.784;2023-12-07T13:32:02;23.40;;;14.30;;
6251;SDS011;3159;52.414;9.784;2023-12-07T13:34:29;18.57;;;12.33;;
6251;SDS011;3159;52.414;9.784;2023-12-07T13:36:56;22.10;;;13.13;;
6251;SDS011;3159;52.414;9.784;2023-12-07T13:39:22;20.33;;;13.83;;
6251;SDS011;3159;52.414;9.784;2023-12-07T13:41:51;17.53;;;12.23;;
6251;SDS011;3159;52.414;9.784;2023-12-07T13:44:19;19.37;;;13.27;;
6251;SDS011;3159;52.414;9.784;2023-12-07T13:46:46;22.13;;;13.30;;
6251;SDS011;3159;52.414;9.784;2023-12-07T13:49:13;18.93;;;12.93;;
6251;SDS011;3159;52.414;9.784;2023-12-07T13:51:40;20.27;;;12.23;;
6251;SDS011;3159;52.414;9.784;2023-12-07T13:54:07;18.57;;;12.87;;
6251;SDS011;3159;52.414;9.784;2023-12-07T13:56:34;20.23;;;13.63;;
6251;SDS011;3159;52.414;9.784;2023-12-07T13:59:01;18.60;;;12.33;;
6251;SDS011;3159;52.414;9.784;2023-12-07T14:01:29;20.10;;;13.63;;
6251;SDS011;3159;52.414;9.784;2023-12-07T14:03:57;24.30;;;15.13;;
6251;SDS011;3159;52.414;9.784;2023-12-07T14:06:24;20.63;;;14.33;;
6251;SDS011;3159;52.414;9.784;2023-12-07T14:08:51;22.77;;;14.90;;
6251;SDS011;3159;52.414;9.784;2023-12-07T14:11:18;24.67;;;15.07;;
6251;SDS011;3159;52.414;9.784;2023-12-07T14:13:45;18.03;;;13.10;;
6251;SDS011;3159;52.414;9.784;2023-12-07T14:16:13;22.37;;;13.87;;
6251;SDS011;3159;52.414;9.784;2023-12-07T14:18:41;22.17;;;14.43;;
6251;SDS011;3159;52.414;9.784;2023-12-07T14:21:08;23.20;;;15.20;;
6251;SDS011;3159;52.414;9.784;2023-12-07T14:23:36;20.77;;;14.80;;
6251;SDS011;3159;52.414;9.784;2023-12-07T14:26:03;20.10;;;14.03;;
6251;SDS011;3159;52.414;9.784;2023-12-07T14:28:30;25.53;;;15.30;;
6251;SDS011;3159;52.414;9.784;2023-12-07T14:30:59;20.40;;;14.33;;
6251;SDS011;3159;52.414;9.784;2023-12-07T14:33:25;19.73;;;13.87;;
6251;SDS011;3159;52.414;9.784;2023-12-07T14:35:54;17.50;;;12.80;;
6251;SDS011;3159;52.414;9.784;2023-12-07T14:38:20;20.60;;;14.43;;
6251;SDS011;3159;52.414;9.784;2023-12-07T14:40:49;21.70;;;14.77;;
6251;SDS011;3159;52.414;9.784;2023-12-07T14:43:16;24.53;;;15.17;;
6251;SDS011;3159;52.414;9.784;2023-12-07T14:45:42;21.10;;;14.07;;
6251;SDS011;3159;52.414;9.784;2023-12-07T14:48:09;19.77;;;14.67;;
6251;SDS011;3159;52.414;9.784;2023-12-07T14:50:37;20.03;;;13.87;;
6251;SDS011;3159;52.414;9.784;2023-12-07T14:53:05;17.87;;;13.03;;